Time;durP1;ratioP1;P1;durP2;ratioP2;P2;SDS_P1;SDS_P2;PMS_P1;PMS_P2;Temp;Humidity;BMP_temperature;BMP_pressure;BME280_temperature;BME280_humidity;BME280_pressure;Samples;Min_cycle;Max_cycle;Signal;HPM_P1;HPM_P2
2023/02/27 00:00:13;;;;;;;8.85;8.00;;;1.80;99.90;;;;;;6007484;23;20391;-81
2023/02/27 00:02:45;;;;;;;7.72;6.93;;;2.00;99.90;;;;;;6006680;23;20698;-79
2023/02/27 00:05:13;;;;;;;7.80;7.00;;;1.90;99.90;;;;;;6006813;23;20381;-79
2023/02/27 00:07:40;;;;;;;6.80;6.13;;;1.90;99.90;;;;;;6007097;23;20386;-79
2023/02/27 00:10:08;;;;;;;7.07;6.28;;;2.20;99.90;;;;;;6008834;23;20717;-79
2023/02/27 00:12:37;;;;;;;5.65;5.15;;;2.20;99.90;;;;;;6007138;23;20378;-79
2023/02/27 00:15:17;;;;;;;5.57;5.10;;;2.10;99.90;;;;;;6007617;23;20486;-79
2023/02/27 00:17:44;;;;;;;5.43;4.93;;;2.50;99.90;;;;;;6006764;23;20728;-82
2023/02/27 00:20:13;;;;;;;5.18;4.78;;;2.60;99.90;;;;;;6006728;23;20389;-79
2023/02/27 00:22:41;;;;;;;5.40;4.90;;;2.70;99.90;;;;;;6005869;23;20417;-81
2023/02/27 00:25:09;;;;;;;5.90;5.40;;;2.70;99.90;;;;;;6007339;23;20382;-82
2023/02/27 00:27:36;;;;;;;6.03;5.43;;;2.80;99.90;;;;;;6006597;23;20390;-81
2023/02/27 00:30:09;;;;;;;5.13;4.72;;;2.80;99.90;;;;;;6007648;23;20809;-81
2023/02/27 00:32:36;;;;;;;6.00;5.50;;;2.90;99.90;;;;;;6006519;23;20389;-78
2023/02/27 00:35:05;;;;;;;21.10;15.00;;;3.00;99.90;;;;;;6007611;23;20450;-81
2023/02/27 00:37:33;;;;;;;14.05;11.65;;;2.90;99.90;;;;;;6006371;23;20456;-79
2023/02/27 00:40:00;;;;;;;8.93;8.02;;;2.90;99.90;;;;;;6007758;23;20438;-80
2023/02/27 00:42:29;;;;;;;6.40;5.80;;;2.90;99.90;;;;;;6007681;23;20457;-79
2023/02/27 00:44:56;;;;;;;6.32;5.80;;;2.90;99.90;;;;;;6006793;23;20405;-79
2023/02/27 00:47:23;;;;;;;7.93;7.13;;;2.90;99.90;;;;;;6007175;23;20386;-79
2023/02/27 00:49:50;;;;;;;13.65;11.38;;;2.80;99.90;;;;;;6006395;23;20385;-81
2023/02/27 00:52:17;;;;;;;12.40;10.43;;;2.50;99.90;;;;;;6007494;23;20382;-81
2023/02/27 00:54:44;;;;;;;7.93;7.13;;;2.70;99.90;;;;;;6006256;23;20469;-80
2023/02/27 00:57:11;;;;;;;6.90;6.20;;;2.80;99.90;;;;;;6007408;23;20865;-80
2023/02/27 00:59:38;;;;;;;6.35;5.75;;;3.10;99.90;;;;;;6006473;23;20419;-79
2023/02/27 01:02:05;;;;;;;6.37;5.77;;;3.00;99.90;;;;;;6007335;23;20425;-80
2023/02/27 01:04:32;;;;;;;5.93;5.43;;;3.00;99.90;;;;;;6006830;23;20738;-80
2023/02/27 01:06:59;;;;;;;5.35;4.88;;;3.00;99.90;;;;;;5983218;23;20402;-80
2023/02/27 01:09:26;;;;;;;6.35;5.75;;;3.20;99.90;;;;;;6006744;23;20860;-79
2023/02/27 01:11:53;;;;;;;7.20;6.57;;;3.30;99.90;;;;;;6006687;23;20382;-79
2023/02/27 01:14:19;;;;;;;5.72;5.22;;;3.10;99.90;;;;;;6007277;23;20398;-79
2023/02/27 01:16:46;;;;;;;5.28;4.78;;;3.10;99.90;;;;;;6006747;23;20394;-79
2023/02/27 01:19:14;;;;;;;6.70;6.10;;;3.30;99.90;;;;;;6007240;23;20406;-79
2023/02/27 01:21:41;;;;;;;5.90;5.30;;;3.10;99.90;;;;;;6007542;23;20861;-80
2023/02/27 01:24:09;;;;;;;5.00;4.60;;;3.10;99.90;;;;;;6006248;23;20409;-79
2023/02/27 01:26:36;;;;;;;5.57;5.07;;;2.90;99.90;;;;;;6006989;23;20489;-79
2023/02/27 01:29:04;;;;;;;5.15;4.75;;;2.80;99.90;;;;;;6007440;23;20421;-79
2023/02/27 01:31:32;;;;;;;5.03;4.63;;;2.60;99.90;;;;;;6007980;23;20425;-79
2023/02/27 01:33:59;;;;;;;5.40;4.90;;;2.60;99.90;;;;;;6007724;23;20889;-79
2023/02/27 01:36:26;;;;;;;6.05;5.45;;;2.80;99.90;;;;;;6007521;23;20402;-82
2023/02/27 01:38:53;;;;;;;6.10;5.22;;;2.90;99.90;;;;;;6006448;23;20690;-80
2023/02/27 01:41:20;;;;;;;5.57;5.05;;;3.00;99.90;;;;;;6007500;23;20402;-78
2023/02/27 01:44:02;;;;;;;5.00;4.50;;;3.00;99.90;;;;;;6005676;23;20386;-81
2023/02/27 01:46:30;;;;;;;6.13;4.65;;;2.90;99.90;;;;;;6006859;23;20433;-79
2023/02/27 01:49:04;;;;;;;5.82;4.95;;;2.90;99.90;;;;;;6005932;23;20482;-81
2023/02/27 01:51:35;;;;;;;4.90;4.50;;;2.80;99.90;;;;;;6007641;23;20515;-78
2023/02/27 01:54:06;;;;;;;4.75;4.20;;;2.50;99.90;;;;;;6006209;23;20421;-79
2023/02/27 01:56:33;;;;;;;5.88;4.60;;;2.70;99.90;;;;;;6006841;23;20421;-79
2023/02/27 01:59:07;;;;;;;5.03;4.53;;;3.00;99.90;;;;;;5983171;23;20422;-79
2023/02/27 02:01:35;;;;;;;4.60;4.15;;;2.70;99.90;;;;;;6006989;23;20816;-78
